Time;durP1;ratioP1;P1;durP2;ratioP2;P2;SDS_P1;SDS_P2;PMS_P1;PMS_P2;Temp;Humidity;BMP_temperature;BMP_pressure;BME280_temperature;BME280_humidity;BME280_pressure;Samples;Min_cycle;Max_cycle;Signal;HPM_P1;HPM_P2
2023/11/30 00:02:02;;;;;;;6.38;3.78;;;;;;;;;;5075604;28;20128;-56
2023/11/30 00:04:28;;;;;;;8.07;4.70;;;;;;;;;;5075881;28;20071;-59
2023/11/30 00:06:54;;;;;;;6.20;3.70;;;;;;;;;;5060109;28;20071;-57
2023/11/30 00:09:20;;;;;;;6.70;4.00;;;;;;;;;;5054125;28;20085;-56
2023/11/30 00:11:46;;;;;;;6.47;3.80;;;;;;;;;;5055366;28;20021;-54
2023/11/30 00:14:12;;;;;;;7.82;4.20;;;;;;;;;;5054907;28;20509;-57
2023/11/30 00:16:38;;;;;;;8.23;4.88;;;;;;;;;;5055223;28;20051;-58
2023/11/30 00:19:05;;;;;;;7.30;4.30;;;;;;;;;;5055153;28;20469;-58
2023/11/30 00:21:31;;;;;;;7.97;5.28;;;;;;;;;;5055520;28;20107;-57
2023/11/30 00:23:57;;;;;;;6.97;4.15;;;;;;;;;;5054962;28;20380;-56
2023/11/30 00:26:23;;;;;;;9.32;5.90;;;;;;;;;;5058079;28;20104;-61
2023/11/30 00:28:49;;;;;;;7.40;4.40;;;;;;;;;;5078425;28;20090;-61
2023/11/30 00:31:15;;;;;;;7.10;4.25;;;;;;;;;;5076123;28;20028;-56
2023/11/30 00:33:41;;;;;;;7.30;4.40;;;;;;;;;;5062846;28;20495;-55
2023/11/30 00:36:08;;;;;;;7.15;4.22;;;;;;;;;;4745801;22;10000435;-51
2023/11/30 00:38:34;;;;;;;7.20;4.30;;;;;;;;;;5075370;28;20089;-52
2023/11/30 00:41:00;;;;;;;7.38;4.43;;;;;;;;;;5074830;28;20119;-54
2023/11/30 00:43:26;;;;;;;8.88;5.88;;;;;;;;;;5057539;28;20066;-52
2023/11/30 00:45:52;;;;;;;6.85;4.07;;;;;;;;;;5073587;28;20528;-54
2023/11/30 00:48:18;;;;;;;7.05;4.20;;;;;;;;;;5071899;28;20033;-50
2023/11/30 00:50:44;;;;;;;6.90;4.10;;;;;;;;;;5071570;28;20585;-50
2023/11/30 00:53:10;;;;;;;7.35;4.40;;;;;;;;;;5071491;28;20579;-52
2023/11/30 00:55:36;;;;;;;11.50;5.05;;;;;;;;;;5072095;28;20020;-50
2023/11/30 00:58:02;;;;;;;7.65;4.95;;;;;;;;;;5074772;28;20513;-53
2023/11/30 01:00:28;;;;;;;7.30;4.40;;;;;;;;;;5072564;28;20432;-52
2023/11/30 01:02:54;;;;;;;8.48;5.43;;;;;;;;;;5072952;28;20027;-51
2023/11/30 01:05:20;;;;;;;7.22;4.30;;;;;;;;;;5072766;28;20486;-53
2023/11/30 01:07:47;;;;;;;7.25;4.35;;;;;;;;;;5072604;28;20052;-53
2023/11/30 01:10:13;;;;;;;7.40;4.38;;;;;;;;;;5071933;28;20600;-53
2023/11/30 01:12:39;;;;;;;8.43;5.53;;;;;;;;;;5072547;28;20024;-55
2023/11/30 01:15:05;;;;;;;7.93;4.70;;;;;;;;;;5071197;28;20094;-52
2023/11/30 01:17:31;;;;;;;12.23;8.85;;;;;;;;;;5072475;28;20031;-53
2023/11/30 01:19:57;;;;;;;7.68;4.60;;;;;;;;;;5071763;28;20028;-56
2023/11/30 01:22:23;;;;;;;7.50;4.43;;;;;;;;;;5072244;28;20047;-55
2023/11/30 01:24:49;;;;;;;7.50;4.43;;;;;;;;;;5071037;28;20463;-53
2023/11/30 01:27:16;;;;;;;7.60;4.50;;;;;;;;;;5072182;28;20046;-51
2023/11/30 01:29:42;;;;;;;7.72;4.60;;;;;;;;;;5070446;28;20028;-53
2023/11/30 01:32:08;;;;;;;7.38;4.40;;;;;;;;;;5071771;28;20024;-54
2023/11/30 01:34:34;;;;;;;7.68;4.57;;;;;;;;;;5072030;28;20021;-54
2023/11/30 01:37:00;;;;;;;9.88;5.30;;;;;;;;;;5070671;28;20032;-52
2023/11/30 01:39:26;;;;;;;8.05;4.80;;;;;;;;;;5070646;28;20039;-52
2023/11/30 01:41:52;;;;;;;7.75;4.65;;;;;;;;;;5071565;28;20024;-52
2023/11/30 01:44:18;;;;;;;8.55;5.05;;;;;;;;;;5071925;28;20024;-49
2023/11/30 01:46:45;;;;;;;9.10;5.53;;;;;;;;;;5070564;28;20021;-51
2023/11/30 01:49:11;;;;;;;8.95;5.25;;;;;;;;;;5071944;28;20021;-54
2023/11/30 01:51:38;;;;;;;8.30;4.90;;;;;;;;;;5070060;28;20039;-50
2023/11/30 01:54:04;;;;;;;8.35;4.97;;;;;;;;;;5071864;28;20429;-52
2023/11/30 01:56:31;;;;;;;9.32;5.95;;;;;;;;;;5070445;28;20028;-54
2023/11/30 01:58:57;;;;;;;11.02;5.88;;;;;;;;;;5071427;28;20375;-53
2023/11/30 02:01:26;;;;;;;7.88;4.70;;;;;;;;;;5070873;28;20036;-53
2023/11/30 02:03:53;;;;;;;8.00;4.80;;;;;;;;;;5071658;28;20044;-51
2023/11/30 02:06:19;;;;;;;7.75;4.60;;;;;;;;;;5071268;28;20046;-51
2023/11/30 02:08:45;;;;;;;7.82;4.65;;;;;;;;;;5071248;28;20082;-54
2023/11/30 02:11:12;;;;;;;8.57;5.00;;;;;;;;;;5069504;28;20025;-52
2023/11/30 02:13:38;;;;;;;7.70;4.60;;;;;;;;;;5071591;28;20482;-53
2023/11/30 02:16:04;;;;;;;7.97;4.70;;;;;;;;;;5071567;28;20566;-50
2023/11/30 02:18:30;;;;;;;8.88;5.38;;;;;;;;;;5070014;28;20028;-51
2023/11/30 02:20:56;;;;;;;8.10;4.80;;;;;;;;;;5070474;28;20032;-52
2023/11/30 02:23:22;;;;;;;7.90;4.70;;;;;;;;;;5071188;28;20028;-52
2023/11/30 02:25:48;;;;;;;7.70;4.60;;;;;;;;;;5071102;28;20612;-51
2023/11/30 02:28:17;;;;;;;7.90;4.70;;;;;;;;;;5069723;28;20024;-54
2023/11/30 02:30:46;;;;;;;8.43;5.60;;;;;;;;;;5070583;28;20040;-50
2023/11/30 02:33:12;;;;;;;;;;;;;;;;;;5071747;28;20540;-50
2023/11/30 02:35:38;;;;;;;7.68;4.57;;;;;;;;;;5069557;28;19908;-50
2023/11/30 02:38:04;;;;;;;8.15;4.80;;;;;;;;;;5069846;28;20032;-54
2023/11/30 02:40:30;;;;;;;8.18;4.80;;;;;;;;;;5069025;28;20475;-55
2023/11/30 02:42:56;;;;;;;8.07;4.80;;;;;;;;;;5070785;28;20027;-51
2023/11/30 02:45:21;;;;;;;7.95;4.70;;;;;;;;;;5070873;28;20054;-52
2023/11/30 02:47:47;;;;;;;8.30;4.90;;;;;;;;;;5069709;28;20512;-53
2023/11/30 02:50:13;;;;;;;7.75;4.60;;;;;;;;;;5070260;28;20465;-55
2023/11/30 02:52:39;;;;;;;8.10;4.80;;;;;;;;;;5070833;28;20040;-56
2023/11/30 02:55:06;;;;;;;8.00;4.80;;;;;;;;;;5070608;28;20016;-54
2023/11/30 02:57:32;;;;;;;8.45;5.20;;;;;;;;;;5070633;28;20082;-54
2023/11/30 02:59:58;;;;;;;8.05;4.80;;;;;;;;;;5069822;28;20490;-57
2023/11/30 03:02:24;;;;;;;8.50;5.00;;;;;;;;;;5069210;28;20031;-50
2023/11/30 03:04:50;;;;;;;8.32;4.90;;;;;;;;;;5070459;28;20518;-52
2023/11/30 03:07:16;;;;;;;8.10;4.80;;;;;;;;;;5070282;28;20128;-54
2023/11/30 03:09:42;;;;;;;8.10;4.80;;;;;;;;;;5069407;28;20021;-52
2023/11/30 03:12:08;;;;;;;8.40;5.00;;;;;;;;;;5069796;28;20621;-52
2023/11/30 03:14:34;;;;;;;8.50;5.00;;;;;;;;;;5070336;28;20023;-53
2023/11/30 03:17:00;;;;;;;10.15;7.82;;;;;;;;;;5069089;28;20367;-52
2023/11/30 03:19:26;;;;;;;8.55;5.28;;;;;;;;;;5070153;28;20082;-49
2023/11/30 03:21:52;;;;;;;7.82;4.68;;;;;;;;;;5068697;28;20024;-50
2023/11/30 03:24:19;;;;;;;8.60;5.10;;;;;;;;;;5070313;28;20056;-53
2023/11/30 03:26:45;;;;;;;8.43;4.97;;;;;;;;;;5070330;28;20082;-48
2023/11/30 03:29:11;;;;;;;7.95;4.80;;;;;;;;;;5070086;28;20024;-52
2023/11/30 03:31:37;;;;;;;8.20;4.90;;;;;;;;;;5069470;28;20386;-52
2023/11/30 03:34:03;;;;;;;9.35;5.50;;;;;;;;;;5068896;28;20516;-52
2023/11/30 03:36:29;;;;;;;13.45;6.43;;;;;;;;;;5070059;28;20037;-50
2023/11/30 03:38:55;;;;;;;8.23;4.88;;;;;;;;;;5070171;28;20453;-54
2023/11/30 03:41:24;;;;;;;8.13;4.80;;;;;;;;;;5069602;28;20032;-50
2023/11/30 03:43:51;;;;;;;9.55;5.90;;;;;;;;;;5070268;28;20032;-53
2023/11/30 03:46:17;;;;;;;10.15;6.43;;;;;;;;;;5070265;28;20517;-50
2023/11/30 03:48:43;;;;;;;7.78;4.65;;;;;;;;;;5069972;28;20028;-53
2023/11/30 03:51:10;;;;;;;9.27;6.05;;;;;;;;;;5069281;28;20069;-51
2023/11/30 03:53:36;;;;;;;9.50;6.75;;;;;;;;;;5070076;28;20017;-50
2023/11/30 03:56:02;;;;;;;8.10;4.80;;;;;;;;;;5069943;28;20420;-49
2023/11/30 03:58:28;;;;;;;8.18;4.80;;;;;;;;;;5068695;28;20039;-51
2023/11/30 04:00:54;;;;;;;8.30;4.90;;;;;;;;;;5069111;28;20033;-48
2023/11/30 04:03:20;;;;;;;8.20;4.88;;;;;;;;;;5068532;28;20029;-54
2023/11/30 04:05:46;;;;;;;9.00;6.35;;;;;;;;;;5069771;28;20024;-50
2023/11/30 04:08:12;;;;;;;8.45;5.00;;;;;;;;;;5069707;28;20340;-53
2023/11/30 04:10:38;;;;;;;7.93;4.70;;;;;;;;;;5068991;28;20078;-54
2023/11/30 04:13:04;;;;;;;8.20;4.90;;;;;;;;;;5069696;28;20089;-52
2023/11/30 04:15:30;;;;;;;7.72;4.60;;;;;;;;;;5069660;28;20024;-55
2023/11/30 04:17:56;;;;;;;8.30;4.90;;;;;;;;;;5069776;28;20103;-52
2023/11/30 04:20:22;;;;;;;8.18;4.85;;;;;;;;;;5068273;28;20024;-53
2023/11/30 04:22:48;;;;;;;8.20;4.90;;;;;;;;;;5072130;28;20035;-50
2023/11/30 04:25:14;;;;;;;8.57;5.07;;;;;;;;;;5073309;28;20486;-55
2023/11/30 04:27:40;;;;;;;8.40;4.90;;;;;;;;;;5073275;28;20032;-54
2023/11/30 04:30:06;;;;;;;8.80;5.18;;;;;;;;;;5071405;28;20101;-55
2023/11/30 04:32:32;;;;;;;8.07;4.80;;;;;;;;;;5072123;28;20055;-53
2023/11/30 04:34:59;;;;;;;8.30;4.90;;;;;;;;;;5072972;28;20013;-57
2023/11/30 04:37:25;;;;;;;11.88;6.47;;;;;;;;;;5073286;28;20040;-55
2023/11/30 04:39:51;;;;;;;10.65;6.85;;;;;;;;;;5072627;28;20402;-49
2023/11/30 04:42:17;;;;;;;8.30;4.95;;;;;;;;;;5072791;28;20032;-51
2023/11/30 04:44:43;;;;;;;9.10;5.32;;;;;;;;;;5073136;28;20355;-53
2023/11/30 04:47:09;;;;;;;9.68;6.90;;;;;;;;;;5072931;28;20128;-53
2023/11/30 04:49:35;;;;;;;8.43;5.00;;;;;;;;;;5072705;28;20031;-54
2023/11/30 04:52:01;;;;;;;9.38;5.95;;;;;;;;;;5070856;28;20035;-53
2023/11/30 04:54:26;;;;;;;8.52;5.05;;;;;;;;;;5072724;28;20029;-49
2023/11/30 04:56:52;;;;;;;8.50;5.00;;;;;;;;;;5072589;28;20107;-48
2023/11/30 04:59:18;;;;;;;9.05;5.68;;;;;;;;;;5071499;28;20021;-50
2023/11/30 05:01:45;;;;;;;9.18;5.40;;;;;;;;;;5072617;28;20029;-48
2023/11/30 05:04:11;;;;;;;8.65;5.10;;;;;;;;;;5073178;28;20103;-51
2023/11/30 05:06:36;;;;;;;9.10;5.40;;;;;;;;;;5071982;28;20561;-51
2023/11/30 05:09:03;;;;;;;8.77;5.18;;;;;;;;;;5073171;28;20028;-50
2023/11/30 05:11:29;;;;;;;8.70;5.15;;;;;;;;;;5072149;28;20048;-48
2023/11/30 05:13:55;;;;;;;8.75;5.20;;;;;;;;;;5072548;28;20020;-50
2023/11/30 05:16:21;;;;;;;9.25;5.45;;;;;;;;;;5072347;28;20074;-52
2023/11/30 05:18:47;;;;;;;9.45;5.60;;;;;;;;;;5071050;28;20024;-53
2023/11/30 05:21:13;;;;;;;9.23;5.45;;;;;;;;;;5071461;28;20124;-50
2023/11/30 05:23:39;;;;;;;9.65;5.70;;;;;;;;;;5071049;28;20028;-49
2023/11/30 05:26:05;;;;;;;9.23;5.47;;;;;;;;;;5070909;28;20116;-48
2023/11/30 05:28:32;;;;;;;8.95;5.30;;;;;;;;;;5072136;28;20107;-51
2023/11/30 05:30:58;;;;;;;41.88;11.73;;;;;;;;;;5070203;28;20502;-55
2023/11/30 05:33:26;;;;;;;9.20;5.40;;;;;;;;;;5071361;28;20436;-55
2023/11/30 05:35:52;;;;;;;9.77;5.75;;;;;;;;;;5071899;28;20028;-52
2023/11/30 05:38:19;;;;;;;8.60;5.10;;;;;;;;;;5072109;28;20032;-51
2023/11/30 05:40:45;;;;;;;10.38;6.28;;;;;;;;;;5071497;28;20025;-47
2023/11/30 05:43:11;;;;;;;10.00;6.00;;;;;;;;;;5071843;28;20025;-49
2023/11/30 05:45:37;;;;;;;9.38;5.50;;;;;;;;;;5071767;28;20500;-55
2023/11/30 05:48:03;;;;;;;9.40;5.60;;;;;;;;;;5071790;28;20029;-53
2023/11/30 05:50:29;;;;;;;10.93;7.22;;;;;;;;;;5070891;28;20112;-52
2023/11/30 05:52:55;;;;;;;9.60;5.68;;;;;;;;;;5071763;28;20095;-48
2023/11/30 05:55:21;;;;;;;9.80;6.00;;;;;;;;;;5070368;28;20486;-50
2023/11/30 05:57:47;;;;;;;10.95;5.85;;;;;;;;;;5071660;28;20021;-53
2023/11/30 06:00:14;;;;;;;8.85;5.25;;;;;;;;;;5070859;28;20032;-54
2023/11/30 06:02:40;;;;;;;8.90;5.30;;;;;;;;;;5071443;28;20558;-52
2023/11/30 06:05:06;;;;;;;9.18;5.45;;;;;;;;;;5071274;28;20474;-56
2023/11/30 06:07:32;;;;;;;10.70;8.05;;;;;;;;;;5068896;28;20382;-52
2023/11/30 06:09:58;;;;;;;8.98;5.30;;;;;;;;;;5070352;28;20066;-54
2023/11/30 06:12:24;;;;;;;10.27;5.88;;;;;;;;;;5071056;28;20032;-49
2023/11/30 06:14:50;;;;;;;8.98;5.30;;;;;;;;;;5069859;28;20029;-52
2023/11/30 06:17:17;;;;;;;8.77;5.18;;;;;;;;;;5069718;28;20496;-56
2023/11/30 06:19:43;;;;;;;8.57;5.07;;;;;;;;;;5071027;28;20025;-52
2023/11/30 06:22:09;;;;;;;8.90;5.30;;;;;;;;;;5070057;28;20107;-48
2023/11/30 06:24:35;;;;;;;8.98;5.28;;;;;;;;;;5070831;28;20127;-49
2023/11/30 06:27:01;;;;;;;9.55;5.88;;;;;;;;;;5069329;28;20107;-51
2023/11/30 06:29:29;;;;;;;9.00;5.40;;;;;;;;;;5069184;28;20036;-52
2023/11/30 06:31:58;;;;;;;8.80;5.20;;;;;;;;;;5070436;28;20020;-55
2023/11/30 06:34:24;;;;;;;8.52;5.07;;;;;;;;;;5071017;28;20373;-54
2023/11/30 06:36:51;;;;;;;8.80;5.20;;;;;;;;;;5086330;22;20216;-61
2023/11/30 06:39:18;;;;;;;11.00;6.72;;;;;;;;;;5076604;28;20044;-62
2023/11/30 06:41:47;;;;;;;8.80;5.20;;;;;;;;;;5076601;28;20029;-62
2023/11/30 06:44:13;;;;;;;8.30;4.90;;;;;;;;;;5074933;28;20021;-63
2023/11/30 06:46:42;;;;;;;8.80;5.25;;;;;;;;;;5076113;28;20390;-57
2023/11/30 06:49:08;;;;;;;8.73;5.13;;;;;;;;;;5075975;28;20065;-63
2023/11/30 06:51:34;;;;;;;8.60;5.10;;;;;;;;;;5073790;28;20025;-63
2023/11/30 06:54:00;;;;;;;10.82;6.00;;;;;;;;;;5076753;28;20091;-63
2023/11/30 06:56:26;;;;;;;11.00;6.35;;;;;;;;;;5074617;28;20455;-62
2023/11/30 06:58:52;;;;;;;10.20;6.10;;;;;;;;;;5075773;28;20021;-58
2023/11/30 07:01:18;;;;;;;8.73;5.20;;;;;;;;;;5074363;28;20433;-62
2023/11/30 07:03:44;;;;;;;9.82;6.90;;;;;;;;;;5066870;28;20021;-63
2023/11/30 07:06:10;;;;;;;8.57;5.10;;;;;;;;;;5073171;28;20028;-59
2023/11/30 07:08:36;;;;;;;9.18;6.18;;;;;;;;;;5057702;28;20029;-61
2023/11/30 07:11:03;;;;;;;8.30;4.97;;;;;;;;;;5055604;28;20029;-59
2023/11/30 07:13:29;;;;;;;8.95;5.30;;;;;;;;;;5076080;28;20017;-62
2023/11/30 07:15:55;;;;;;;14.27;9.48;;;;;;;;;;5075547;28;20016;-63
2023/11/30 07:18:21;;;;;;;8.80;5.20;;;;;;;;;;5074955;28;20036;-61
2023/11/30 07:20:47;;;;;;;8.60;5.10;;;;;;;;;;5075016;28;20029;-63
2023/11/30 07:23:13;;;;;;;7.75;4.60;;;;;;;;;;5075457;28;20021;-62
2023/11/30 07:25:39;;;;;;;8.50;5.10;;;;;;;;;;5075600;28;20356;-61
2023/11/30 07:28:05;;;;;;;9.10;5.40;;;;;;;;;;5075380;28;20024;-57
2023/11/30 07:30:31;;;;;;;9.40;5.55;;;;;;;;;;5074901;28;20028;-63
2023/11/30 07:32:59;;;;;;;9.20;5.43;;;;;;;;;;5074081;28;20463;-57
2023/11/30 07:35:26;;;;;;;9.38;5.50;;;;;;;;;;5074587;28;20378;-62
2023/11/30 07:37:52;;;;;;;9.77;6.43;;;;;;;;;;5063110;28;20036;-61
2023/11/30 07:40:18;;;;;;;9.30;5.50;;;;;;;;;;5053423;28;20029;-61
2023/11/30 07:42:44;;;;;;;9.18;5.40;;;;;;;;;;5054021;28;20031;-61
2023/11/30 07:45:10;;;;;;;9.77;5.88;;;;;;;;;;5053888;28;20303;-62
2023/11/30 07:47:36;;;;;;;13.35;7.60;;;;;;;;;;5054185;28;20075;-62
2023/11/30 07:50:02;;;;;;;10.80;7.65;;;;;;;;;;5053266;28;20084;-62
2023/11/30 07:52:28;;;;;;;14.13;6.80;;;;;;;;;;5054634;28;20017;-61
2023/11/30 07:54:54;;;;;;;10.60;6.32;;;;;;;;;;5055049;28;20478;-62
2023/11/30 07:57:20;;;;;;;13.95;7.15;;;;;;;;;;5057816;28;20052;-64
2023/11/30 07:59:47;;;;;;;13.85;9.48;;;;;;;;;;5056810;28;20115;-61
2023/11/30 08:02:13;;;;;;;9.40;5.53;;;;;;;;;;5059011;28;20021;-62
2023/11/30 08:04:41;;;;;;;10.52;7.05;;;;;;;;;;5073002;28;20024;-63
2023/11/30 08:07:07;;;;;;;9.35;5.50;;;;;;;;;;5079457;28;20028;-62
2023/11/30 08:09:33;;;;;;;9.00;5.30;;;;;;;;;;5078575;28;20028;-63
2023/11/30 08:11:59;;;;;;;11.82;5.95;;;;;;;;;;5077493;28;20103;-63
2023/11/30 08:14:25;;;;;;;9.30;5.50;;;;;;;;;;5078417;28;20411;-62
2023/11/30 08:16:51;;;;;;;9.88;5.93;;;;;;;;;;5079217;28;20285;-63
2023/11/30 08:19:17;;;;;;;11.68;5.90;;;;;;;;;;5078225;28;20135;-61
2023/11/30 08:21:44;;;;;;;9.20;5.45;;;;;;;;;;5077247;28;20029;-62
2023/11/30 08:24:11;;;;;;;8.90;5.25;;;;;;;;;;5079337;28;20180;-62
2023/11/30 08:26:37;;;;;;;9.32;5.57;;;;;;;;;;5079661;28;20051;-62
2023/11/30 08:29:04;;;;;;;8.65;5.13;;;;;;;;;;5079782;28;20031;-65
2023/11/30 08:31:30;;;;;;;13.02;7.38;;;;;;;;;;5078206;28;20020;-61
2023/11/30 08:33:56;;;;;;;29.83;9.50;;;;;;;;;;5078206;28;20043;-62
2023/11/30 08:36:24;;;;;;;8.85;5.20;;;;;;;;;;5078308;28;20101;-61
2023/11/30 08:38:50;;;;;;;8.90;5.30;;;;;;;;;;5062562;28;20041;-62
2023/11/30 08:41:16;;;;;;;9.38;5.60;;;;;;;;;;5058203;28;20092;-60
2023/11/30 08:43:42;;;;;;;10.63;7.75;;;;;;;;;;5051138;28;20040;-52
2023/11/30 08:46:09;;;;;;;9.88;5.93;;;;;;;;;;5051616;28;20052;-52
2023/11/30 08:48:35;;;;;;;9.18;5.40;;;;;;;;;;5051714;28;20059;-54
2023/11/30 08:51:01;;;;;;;9.40;5.50;;;;;;;;;;5050775;28;20021;-55
2023/11/30 08:53:27;;;;;;;11.30;6.15;;;;;;;;;;5052339;28;20104;-56
2023/11/30 08:55:53;;;;;;;9.80;5.80;;;;;;;;;;5050020;28;20351;-50
2023/11/30 08:58:19;;;;;;;13.40;9.38;;;;;;;;;;5051316;28;20048;-55
2023/11/30 09:00:45;;;;;;;10.55;6.20;;;;;;;;;;5049464;28;20029;-54
2023/11/30 09:03:11;;;;;;;10.75;6.28;;;;;;;;;;5050109;28;20032;-55
2023/11/30 09:05:37;;;;;;;10.95;6.40;;;;;;;;;;5063739;28;20502;-53
2023/11/30 09:08:04;;;;;;;11.30;6.60;;;;;;;;;;5070175;28;20044;-57
2023/11/30 09:10:30;;;;;;;12.00;7.00;;;;;;;;;;5070669;28;20020;-56
2023/11/30 09:12:56;;;;;;;11.15;6.50;;;;;;;;;;5069871;28;20463;-58
2023/11/30 09:15:22;;;;;;;11.55;6.75;;;;;;;;;;5061687;28;20032;-56
2023/11/30 09:17:48;;;;;;;11.55;6.72;;;;;;;;;;5068237;28;20451;-55
2023/11/30 09:20:14;;;;;;;11.00;6.40;;;;;;;;;;5067042;28;20392;-55
2023/11/30 09:22:40;;;;;;;11.40;6.70;;;;;;;;;;5060874;28;20134;-57
2023/11/30 09:25:06;;;;;;;11.15;6.50;;;;;;;;;;5061497;28;20009;-54
2023/11/30 09:27:32;;;;;;;11.02;6.50;;;;;;;;;;5050847;28;20076;-56
2023/11/30 09:29:58;;;;;;;10.82;6.30;;;;;;;;;;5050183;28;20057;-57
2023/11/30 09:32:24;;;;;;;10.80;6.30;;;;;;;;;;5050931;28;20102;-57
2023/11/30 09:34:50;;;;;;;10.73;6.32;;;;;;;;;;5050781;28;20036;-54
2023/11/30 09:37:16;;;;;;;10.57;6.20;;;;;;;;;;5052865;28;20555;-58
2023/11/30 09:39:44;;;;;;;11.13;6.50;;;;;;;;;;5058645;28;20032;-60
2023/11/30 09:42:15;;;;;;;12.67;7.40;;;;;;;;;;5060405;28;20478;-54
2023/11/30 09:44:42;;;;;;;13.15;7.68;;;;;;;;;;5061360;28;20082;-59
2023/11/30 09:47:08;;;;;;;13.93;7.95;;;;;;;;;;5059756;28;20061;-57
2023/11/30 09:49:34;;;;;;;11.82;6.88;;;;;;;;;;5061466;28;20118;-56
2023/11/30 09:52:00;;;;;;;11.70;6.97;;;;;;;;;;5058074;28;20108;-59
2023/11/30 09:54:26;;;;;;;11.15;6.50;;;;;;;;;;5060758;28;20039;-58
2023/11/30 09:56:52;;;;;;;10.60;6.20;;;;;;;;;;5060839;28;20371;-58
2023/11/30 09:59:18;;;;;;;10.23;6.00;;;;;;;;;;5070337;28;20025;-58
2023/11/30 10:01:44;;;;;;;11.60;7.13;;;;;;;;;;5070723;28;20095;-60
2023/11/30 10:04:14;;;;;;;11.32;6.72;;;;;;;;;;5070298;28;20096;-59
2023/11/30 10:06:40;;;;;;;11.10;6.50;;;;;;;;;;5069610;28;20024;-59
2023/11/30 10:09:09;;;;;;;11.32;6.60;;;;;;;;;;5070892;28;20028;-60
2023/11/30 10:11:35;;;;;;;12.00;7.10;;;;;;;;;;5069805;28;20099;-60
2023/11/30 10:14:01;;;;;;;11.85;6.90;;;;;;;;;;5070327;28;20110;-56
2023/11/30 10:16:27;;;;;;;10.88;6.40;;;;;;;;;;5070387;28;20028;-58
2023/11/30 10:18:53;;;;;;;12.05;7.00;;;;;;;;;;5070314;28;20086;-56
2023/11/30 10:21:21;;;;;;;12.48;7.65;;;;;;;;;;5069681;28;20505;-53
2023/11/30 10:23:47;;;;;;;12.20;7.10;;;;;;;;;;5070168;28;20033;-58
2023/11/30 10:26:16;;;;;;;12.45;7.30;;;;;;;;;;5069921;28;20078;-55
2023/11/30 10:28:42;;;;;;;11.90;6.90;;;;;;;;;;5070274;28;20020;-58
2023/11/30 10:31:09;;;;;;;12.77;8.00;;;;;;;;;;5069542;28;20449;-59
2023/11/30 10:33:40;;;;;;;12.90;7.45;;;;;;;;;;5069654;28;20029;-55
2023/11/30 10:36:07;;;;;;;13.77;10.20;;;;;;;;;;5069696;28;20097;-56
2023/11/30 10:38:33;;;;;;;38.22;33.00;;;;;;;;;;5067541;28;20371;-58
2023/11/30 10:41:07;;;;;;;17.35;10.50;;;;;;;;;;5067562;28;20104;-55
2023/11/30 10:43:35;;;;;;;16.58;7.45;;;;;;;;;;5068470;28;20020;-56
2023/11/30 10:46:03;;;;;;;12.55;7.30;;;;;;;;;;5068189;28;20039;-57
2023/11/30 10:48:30;;;;;;;11.80;7.07;;;;;;;;;;5068384;28;20111;-58
2023/11/30 10:50:56;;;;;;;11.75;6.85;;;;;;;;;;5068027;28;20376;-58
2023/11/30 10:53:41;;;;;;;11.68;6.82;;;;;;;;;;5069053;28;20197;-60
2023/11/30 10:56:08;;;;;;;12.30;7.13;;;;;;;;;;5069420;28;20082;-55
2023/11/30 10:58:34;;;;;;;12.15;7.10;;;;;;;;;;5069263;28;20047;-56
2023/11/30 11:01:00;;;;;;;14.50;9.55;;;;;;;;;;5068720;28;20471;-57
2023/11/30 11:03:27;;;;;;;11.85;6.85;;;;;;;;;;5070404;28;20064;-55
2023/11/30 11:05:54;;;;;;;12.52;7.25;;;;;;;;;;5068254;28;20036;-56
2023/11/30 11:08:20;;;;;;;12.15;7.07;;;;;;;;;;5069523;28;20032;-58
2023/11/30 11:10:47;;;;;;;12.45;7.18;;;;;;;;;;5069031;28;20028;-54
2023/11/30 11:13:24;;;;;;;12.25;7.40;;;;;;;;;;5069832;28;20021;-57
2023/11/30 11:16:00;;;;;;;12.23;7.10;;;;;;;;;;5068267;28;20090;-56
2023/11/30 11:18:31;;;;;;;12.20;7.10;;;;;;;;;;5069991;28;20179;-57
2023/11/30 11:20:58;;;;;;;12.30;7.20;;;;;;;;;;5068961;28;20032;-56
2023/11/30 11:23:24;;;;;;;12.30;7.20;;;;;;;;;;5069813;28;20032;-55
2023/11/30 11:25:50;;;;;;;12.18;7.07;;;;;;;;;;5069763;28;20032;-54
2023/11/30 11:28:17;;;;;;;12.90;7.85;;;;;;;;;;5069270;28;20039;-55
2023/11/30 11:30:47;;;;;;;13.02;7.65;;;;;;;;;;5066859;28;20020;-56
2023/11/30 11:33:17;;;;;;;12.93;7.53;;;;;;;;;;5069555;28;20025;-58
2023/11/30 11:35:43;;;;;;;13.15;7.70;;;;;;;;;;5069522;28;20028;-56
2023/11/30 11:38:09;;;;;;;13.18;7.80;;;;;;;;;;5067778;28;20496;-61
2023/11/30 11:40:38;;;;;;;13.48;8.27;;;;;;;;;;5069277;28;20068;-57
2023/11/30 11:43:04;;;;;;;19.75;13.65;;;;;;;;;;5068645;28;20016;-57
2023/11/30 11:45:32;;;;;;;14.13;8.27;;;;;;;;;;5068543;28;20458;-58
2023/11/30 11:47:58;;;;;;;17.35;9.18;;;;;;;;;;5067971;28;20025;-58
2023/11/30 11:50:24;;;;;;;19.33;10.65;;;;;;;;;;5067233;28;20032;-58
2023/11/30 11:52:50;;;;;;;13.65;8.73;;;;;;;;;;5067779;28;20017;-56
2023/11/30 11:55:16;;;;;;;13.48;8.25;;;;;;;;;;5067337;28;20021;-57
2023/11/30 11:57:43;;;;;;;13.48;8.48;;;;;;;;;;5067454;28;20500;-54
2023/11/30 12:00:10;;;;;;;13.35;8.40;;;;;;;;;;5067549;28;20027;-58
2023/11/30 12:02:37;;;;;;;14.48;8.70;;;;;;;;;;5066522;28;20031;-56
2023/11/30 12:05:07;;;;;;;13.23;7.93;;;;;;;;;;5069080;28;20092;-54
2023/11/30 12:07:33;;;;;;;14.52;10.40;;;;;;;;;;5069042;28;20389;-53
2023/11/30 12:09:59;;;;;;;13.55;8.60;;;;;;;;;;5058869;28;20020;-57
2023/11/30 12:12:32;;;;;;;12.57;7.30;;;;;;;;;;5066842;28;20386;-59
2023/11/30 12:14:58;;;;;;;12.93;7.70;;;;;;;;;;5060079;28;20035;-57
2023/11/30 12:17:24;;;;;;;13.32;7.90;;;;;;;;;;5066012;28;20017;-58
2023/11/30 12:19:50;;;;;;;13.50;8.30;;;;;;;;;;5069975;28;20035;-54
2023/11/30 12:22:16;;;;;;;13.45;8.38;;;;;;;;;;5068657;28;20017;-56
2023/11/30 12:24:42;;;;;;;13.77;9.10;;;;;;;;;;5068498;28;20016;-57
2023/11/30 12:27:08;;;;;;;14.30;10.07;;;;;;;;;;5068988;28;20434;-57
2023/11/30 12:29:35;;;;;;;13.73;9.00;;;;;;;;;;5068394;28;20017;-57
2023/11/30 12:32:01;;;;;;;14.98;9.63;;;;;;;;;;5067985;28;20473;-58
2023/11/30 12:34:27;;;;;;;13.48;8.50;;;;;;;;;;5068506;28;20405;-57
2023/11/30 12:36:54;;;;;;;13.50;8.38;;;;;;;;;;5068543;28;20029;-58
2023/11/30 12:39:20;;;;;;;13.48;8.30;;;;;;;;;;5067402;28;20024;-55
2023/11/30 12:41:46;;;;;;;13.70;8.90;;;;;;;;;;5069319;28;20135;-57
2023/11/30 12:44:12;;;;;;;13.32;8.10;;;;;;;;;;5072513;28;20024;-57
2023/11/30 12:46:38;;;;;;;14.93;9.40;;;;;;;;;;5072035;28;20021;-56
2023/11/30 12:49:04;;;;;;;14.30;10.07;;;;;;;;;;5072125;28;20154;-56
2023/11/30 12:51:30;;;;;;;13.55;8.65;;;;;;;;;;5072057;28;20565;-58
2023/11/30 12:53:56;;;;;;;13.70;9.05;;;;;;;;;;5072148;28;20075;-57
2023/11/30 12:56:23;;;;;;;13.55;8.50;;;;;;;;;;5071996;28;20365;-57
2023/11/30 12:58:49;;;;;;;13.48;8.25;;;;;;;;;;5071935;28;20058;-58
2023/11/30 13:01:15;;;;;;;13.60;8.73;;;;;;;;;;5071282;28;20028;-59
2023/11/30 13:03:42;;;;;;;13.88;9.40;;;;;;;;;;5059535;28;20021;-59
2023/11/30 13:06:08;;;;;;;13.98;9.80;;;;;;;;;;5058735;28;20021;-56
2023/11/30 13:08:35;;;;;;;14.10;10.10;;;;;;;;;;5058565;28;20040;-58
2023/11/30 13:11:01;;;;;;;14.30;10.45;;;;;;;;;;5060173;28;20401;-56
2023/11/30 13:13:27;;;;;;;15.85;11.85;;;;;;;;;;5062588;28;20440;-57
2023/11/30 13:15:56;;;;;;;19.60;11.18;;;;;;;;;;5060940;28;20074;-60
2023/11/30 13:18:22;;;;;;;14.07;9.90;;;;;;;;;;5057305;28;20032;-60
2023/11/30 13:20:48;;;;;;;14.50;10.75;;;;;;;;;;5064737;28;20025;-57
2023/11/30 13:23:13;;;;;;;14.10;10.10;;;;;;;;;;5057109;28;20374;-58
2023/11/30 13:25:39;;;;;;;14.10;10.10;;;;;;;;;;5051512;28;20040;-58
2023/11/30 13:28:06;;;;;;;14.00;9.98;;;;;;;;;;5053796;28;20389;-60
2023/11/30 13:30:32;;;;;;;14.10;9.98;;;;;;;;;;5069590;28;20652;-62
2023/11/30 13:32:58;;;;;;;14.02;9.93;;;;;;;;;;5062728;28;20474;-63
2023/11/30 13:35:25;;;;;;;14.07;10.00;;;;;;;;;;5053611;28;20024;-62
2023/11/30 13:37:51;;;;;;;14.10;10.20;;;;;;;;;;5061392;28;20102;-62
2023/11/30 13:40:19;;;;;;;14.98;11.75;;;;;;;;;;5049130;28;20064;-62
2023/11/30 13:42:45;;;;;;;14.23;10.70;;;;;;;;;;5051186;28;20029;-60
2023/11/30 13:45:11;;;;;;;14.80;11.70;;;;;;;;;;5049488;28;20604;-61
2023/11/30 13:47:40;;;;;;;14.32;10.68;;;;;;;;;;5050964;28;20532;-60
2023/11/30 13:50:06;;;;;;;14.40;10.80;;;;;;;;;;5049848;28;20063;-61
2023/11/30 13:52:32;;;;;;;14.30;10.70;;;;;;;;;;5051083;28;20032;-61
2023/11/30 13:54:58;;;;;;;14.35;10.80;;;;;;;;;;5048319;28;20017;-57
2023/11/30 13:57:24;;;;;;;14.10;10.13;;;;;;;;;;5048392;28;20088;-61
2023/11/30 13:59:50;;;;;;;14.05;9.95;;;;;;;;;;5050832;28;20016;-59
2023/11/30 14:02:16;;;;;;;14.05;9.90;;;;;;;;;;5050494;28;20413;-60
2023/11/30 14:04:42;;;;;;;14.05;9.90;;;;;;;;;;5055855;28;20029;-61
2023/11/30 14:07:08;;;;;;;13.95;9.63;;;;;;;;;;5071012;28;20074;-61
2023/11/30 14:09:34;;;;;;;13.93;9.55;;;;;;;;;;5071027;28;20036;-59
2023/11/30 14:12:00;;;;;;;13.88;9.40;;;;;;;;;;5070685;28;20036;-63
2023/11/30 14:14:26;;;;;;;13.70;9.13;;;;;;;;;;5071355;28;20013;-61
2023/11/30 14:16:53;;;;;;;14.95;11.23;;;;;;;;;;5070762;28;20055;-60
2023/11/30 14:19:19;;;;;;;13.77;9.15;;;;;;;;;;5071135;28;20112;-61
2023/11/30 14:21:45;;;;;;;13.90;9.45;;;;;;;;;;5068992;28;20028;-61
2023/11/30 14:24:11;;;;;;;14.35;10.60;;;;;;;;;;5070555;28;20090;-60
2023/11/30 14:26:38;;;;;;;13.82;9.25;;;;;;;;;;5069824;28;20020;-62
2023/11/30 14:29:05;;;;;;;13.60;8.90;;;;;;;;;;5070441;28;20020;-61
2023/11/30 14:31:31;;;;;;;13.77;9.10;;;;;;;;;;5057976;28;20513;-62